Boxian, China
Current Conditions -  °F | °C
As of 6:00 PM on Sunday 23 Nov 2014 (Local Time) from ZHCC Reporting Station
Haze Haze  
Wind Chill: 50°   Ceiling: Unl
Heat Index: 50°   Visibility: 0.93mi
Dew Point: 43°   Wind: 4mph
Humidity: 76%   Direction: 360°N
Pressure: 30.21"   Gusts: NA
Location:  33.88°N, 115.77°E
Report Text: ZHCC 231000Z 36002MPS 1500 BR NSC 10/06 Q1023 NOSIG
Loading
Personal Weather Stations






























Interactive Weather Map New forecast layout! Learn more

10-Day Weather Forecast

Advertisements
Track Severe Weather on mobile